ENAN/ANX METAR and TAF weather

Enter ICAO airport designator
Station Type Date Time Source
ENAN METAR 2020/10/29 15:50 UTC NOAA

ENAN 291550Z 34016KT 9999 VCSH FEW022 SCT038 BKN064 02/M02 Q1002


Station Type Date Time Source
ENAN Decoded METAR 2020/10/29 15:50 UTC NOAA

Andoya, Norway (ENAN) 69-18N 016-09E 14M
Oct 29, 2020 - 11:50 AM EDT / 2020.10.29 1550 UTC
Wind: from the NNW (340 degrees) at 18 MPH (16 KT):0
Visibility: greater than 7 mile(s):0
Sky conditions: mostly cloudy
Weather: showers in the vicinity
Temperature: 35 F (2 C)
Windchill: 24 F (-4 C):1
Dew Point: 28 F (-2 C)
Relative Humidity: 74%
Pressure (altimeter): 29.59 in. Hg (1002 hPa)
ob: ENAN 291550Z 34016KT 9999 VCSH FEW022 SCT038 BKN064 02/M02 Q1002
cycle: 16

Station Type Date Time Source
ENAN TAF 2020/10/29 12:57 UTC NOAA

TAF ENAN 291100Z 2912/3012 36015KT 9999 FEW015TCU SCT040
TEMPO 2912/2921 4000 SHRASN BKN014TCU PROB40
TEMPO 2915/2921 SCT015CB

Example: see airport list